Etusivu
METAR-TAF:

METAR-TAF

Lentoasemat :

Rørvik, Norja

Leveyspiiri: 64-50N, Pituuspiiri: 011-09E, korkeus merenpinnasta: 4 m

Tämänhetkinen sää

Tämä raportti tehtiin 3 tuntia ja 22 minuuttia sitten, kello 12.20 UTC
Tuuli 12 kn etelästä/lounaasta
Lämpötila 16°C
Kosteus 82%
Ilmanpaine 1013 hPa
Näkyvyys 10 km tai enemmän
Muutamia pilviä 600 ft:n korkeudessa
Hajanaisia pilviä 1600 ft:n korkeudessa
Hajonneita pilviä 3900 ft:n korkeudessa
sadekuuroja näköpiirissä

METAR: ENRM 231220Z 21012KT 9999 VCSH FEW006 SCT016 BKN039 16/13 Q1013

Aika: 17:42 (15:42 UTC)

Sääennuste

Tämä raportti tehtiin 22 tuntia ja 42 minuuttia sitten, kello 17.00 UTC
Ennuste voimassa 22. päivästä klo 17 UTC - 22. päivään klo 21 UTC
Tuuli 7 kn lännestä/lounaasta
Näkyvyys 10 km tai enemmän
Muutamia pilviä 2500 ft:n korkeudessa
Hajonneita pilviä 5000 ft:n korkeudessa

TAF: ENRM 221700Z 2217/2221 25007KT 9999 FEW025 BKN050

Säähavainnot ja -ennusteet yli 4000 lentoasemalta (METAR- ja TAF-raportit).

Käytössä olevat sääasemat on merkitty karttaan keltaisilla ja punaisilla pisteillä.

Aseta hiiri pisteen päälle nähdäksesi sääaseman nimen.

Klikkaa sitten nähdäksesi säähavainnot ja -ennusteet.

Kartan vaihtaminen: klikkaa mustalla rastilla varustettuja vihreitä pisteitä, niin voit zoomata sisään; viivalla varustettua vihreää pistettä, niin voit zoomata ulos tai vihreitä nuolia, niin pääset viereisille kartoille.


METAR-TAF: